Latest Coastal Weather Observations for Point Fawcett

IDD60701

Issued at 10:21 am CST Tuesday 28 February 2017 (issued every 10 minutes, with the page automatically refreshed every 10 minutes)

About coastal observations | Map of coastal stations | Coastal observations for NT | Marine services | Other Formats
Station Details ID: 200731 Name: POINT FAWCETT Lat: -11.76 Lon: 130.03 Height: 6.5 m
Data from the previous 72 hours. | See also: Recent months at Point Fawcett
Date/Time
CST
Temp
°C
Wind Pressure Rain since
9am
mm
Weather Cloud Vis
km
Sea
Height
m
Swell
Dir  Spd
kts
Gust
kts
hPa Trend Height
m
Period
s
Dir
28/10:00am 28.8 W 3 5 1009.0 - 0.0 - - - - - - -
28/09:30am 28.4 WSW 3 4 1008.7 - 0.0 - - - - - - -
28/09:00am 27.1 CALM 0 0 1008.5 - 12.0 - - - - - - -
28/08:30am 26.8 CALM 0 0 1008.5 - 12.0 - - - - - - -
28/08:00am 26.5 CALM 0 0 1008.4 - 12.0 - - - - - - -
28/07:30am 25.2 ESE 2 3 1008.0 - 12.0 - - - - - - -
28/07:00am 24.7 ESE 3 4 1007.7 - 12.0 - - - - - - -
28/06:30am 24.9 CALM 0 0 1007.5 - 12.0 - - - - - - -
28/06:00am 25.4 WNW 4 6 1007.4 - 12.0 - - - - - - -
28/05:30am 24.6 CALM 0 3 1007.5 - 12.0 - - - - - - -
28/05:00am 25.0 W 2 3 1007.6 - 12.0 - - - - - - -
28/04:30am 24.8 CALM 0 3 1007.4 - 12.0 - - - - - - -
28/04:00am 24.7 NE 3 5 1007.5 - 12.0 - - - - - - -
28/03:30am 24.8 E 1 4 1007.9 - 12.0 - - - - - - -
28/03:00am 24.8 ENE 4 5 1008.0 - 11.8 - - - - - - -
28/02:30am 24.6 ENE 4 6 1007.8 - 11.8 - - - - - - -
28/02:00am 24.8 E 9 16 1008.1 - 10.4 - - - - - - -
28/01:30am 27.6 SSW 4 5 1008.2 - 0.0 - - - - - - -
28/01:00am 28.4 WSW 6 8 1008.5 - 0.0 - - - - - - -
28/12:30am 27.8 SW 4 7 1008.8 - 0.0 - - - - - - -
28/12:00am 27.2 SW 5 8 1008.9 - 0.0 - - - - - - -
 
Date/Time
CST
Temp
°C
Wind Pressure Rain since
9am
mm
Weather Cloud Vis
km
Sea
Height
m
Swell
Dir  Spd
kts
Gust
kts
hPa Trend Height
m
Period
s
Dir
27/11:30pm 27.3 SW 5 8 1009.0 - 0.0 - - - - - - -
27/11:00pm 26.9 SW 5 7 1009.1 - 0.0 - - - - - - -
27/10:30pm 26.4 SSW 3 5 1008.9 - 0.0 - - - - - - -
27/10:00pm 26.6 SSW 3 4 1008.6 - 0.0 - - - - - - -
27/09:30pm 26.9 SSW 3 4 1008.2 - 0.0 - - - - - - -
27/09:00pm 27.3 S 3 3 1008.0 - 0.0 - - - - - - -
27/08:30pm 27.7 S 3 4 1007.8 - 0.0 - - - - - - -
27/08:00pm 28.5 WSW 3 5 1007.2 - 0.0 - - - - - - -
27/07:30pm 29.3 WSW 4 6 1006.8 - 0.0 - - - - - - -
27/07:00pm 29.6 WSW 5 7 1006.6 - 0.0 - - - - - - -
27/06:30pm 30.0 WSW 5 7 1006.3 - 0.0 - - - - - - -
27/06:00pm 30.3 WSW 4 6 1006.2 - 0.0 - - - - - - -
27/05:30pm 30.7 WSW 5 7 1006.4 - 0.0 - - - - - - -
27/05:00pm 32.2 SW 7 10 1006.0 - 0.0 - - - - - - -
27/04:30pm 32.4 SW 7 11 1006.1 - 0.0 - - - - - - -
27/04:00pm 32.3 SW 8 12 1006.3 - 0.0 - - - - - - -
27/03:30pm 32.5 SW 8 13 1006.3 - 0.0 - - - - - - -
27/03:00pm 32.3 SSW 8 11 1006.3 - 0.0 - - - - - - -
27/02:30pm 32.2 SW 8 11 1007.0 - 0.0 - - - - - - -
27/02:00pm 32.5 SSW 8 11 1007.4 - 0.0 - - - - - - -
27/01:30pm 32.4 SW 8 11 1007.7 - 0.0 - - - - - - -
27/01:00pm 32.3 SW 9 13 1008.1 - 0.0 - - - - - - -
27/12:30pm 32.5 SSW 7 10 1008.2 - 0.0 - - - - - - -
27/12:00pm 32.1 S 4 7 1008.4 - 0.0 - - - - - - -
27/11:30am 31.9 S 6 9 1008.8 - 0.0 - - - - - - -
27/11:00am 31.7 SSE 4 6 1008.9 - 0.0 - - - - - - -
27/10:30am 31.4 SSE 4 8 1009.1 - 0.0 - - - - - - -
27/10:00am 30.2 S 6 8 1009.2 - 0.0 - - - - - - -
27/09:30am 29.8 S 7 10 1009.3 - 0.0 - - - - - - -
27/09:00am 29.6 S 6 9 1009.2 - 15.2 - - - - - - -
27/08:30am 29.2 S 7 11 1009.0 - 15.2 - - - - - - -
27/08:00am 28.1 SSW 5 8 1008.7 - 15.2 - - - - - - -
27/07:30am 26.8 S 5 8 1008.4 - 15.2 - - - - - - -
27/07:00am 26.4 S 5 7 1008.3 - 15.2 - - - - - - -
27/06:30am 26.4 SSW 6 8 1008.0 - 15.2 - - - - - - -
27/06:00am 25.5 S 5 7 1007.6 - 15.2 - - - - - - -
27/05:30am 25.4 SSW 3 5 1007.4 - 15.2 - - - - - - -
27/05:00am 25.1 S 2 4 1007.0 - 15.2 - - - - - - -
27/04:30am 24.6 SSE 5 8 1006.6 - 15.2 - - - - - - -
27/04:00am 24.6 SSE 5 7 1006.5 - 15.2 - - - - - - -
27/03:30am 24.6 SSE 5 8 1006.8 - 15.2 - - - - - - -
27/03:00am 24.5 SSE 5 7 1007.5 - 15.2 - - - - - - -
27/02:30am 24.5 SE 5 7 1008.2 - 15.2 - - - - - - -
27/02:00am 24.2 S 5 7 1008.5 - 15.2 - - - - - - -
27/01:30am 24.2 S 4 5 1009.0 - 14.8 - - - - - - -
27/01:00am 24.0 S 4 5 1009.1 - 14.0 - - - - - - -
27/12:30am 24.0 SSW 3 5 1009.6 - 13.0 - - - - - - -
27/12:00am 24.0 SSW 5 7 1009.6 - 12.8 - - - - - - -
 
Date/Time
CST
Temp
°C
Wind Pressure Rain since
9am
mm
Weather Cloud Vis
km
Sea
Height
m
Swell
Dir  Spd
kts
Gust
kts
hPa Trend Height
m
Period
s
Dir
26/11:30pm 23.7 SE 4 12 1011.4 - 11.2 - - - - - - -
26/11:00pm 24.0 SE 15 28 1011.4 - 1.4 - - - - - - -
26/10:45pm 27.4 SE 15 32 1010.8 - 0.0 - - - - - - -
26/10:30pm 29.4 WSW 6 9 1009.9 - 0.0 - - - - - - -
26/10:00pm 29.2 WSW 6 9 1009.1 - 0.0 - - - - - - -
26/09:30pm 29.2 WSW 7 9 1008.7 - 0.0 - - - - - - -
26/09:00pm 29.2 WSW 6 8 1008.4 - 0.0 - - - - - - -
26/08:30pm 29.2 WSW 5 7 1008.4 - 0.0 - - - - - - -
26/08:00pm 29.3 W 6 8 1007.5 - 0.0 - - - - - - -
26/07:30pm 29.5 W 7 8 1006.8 - 0.0 - - - - - - -
26/07:00pm 30.1 WSW 6 8 1006.4 - 0.0 - - - - - - -
26/06:30pm 31.0 WSW 7 9 1006.1 - 0.0 - - - - - - -
26/06:00pm 31.7 WSW 7 10 1005.7 - 0.0 - - - - - - -
26/05:30pm 32.3 SW 7 10 1005.7 - 0.0 - - - - - - -
26/05:00pm 32.4 SW 9 12 1005.9 - 0.0 - - - - - - -
26/04:30pm 32.3 SW 9 13 1005.9 - 0.0 - - - - - - -
26/04:00pm 33.0 SW 9 12 1006.0 - 0.0 - - - - - - -
26/03:30pm 32.9 SW 8 11 1006.1 - 0.0 - - - - - - -
26/03:00pm 33.1 WSW 9 14 1006.3 - 0.0 - - - - - - -
26/02:30pm 33.3 SSW 8 13 1006.5 - 0.0 - - - - - - -
26/02:00pm 33.7 SSW 8 13 1007.0 - 0.0 - - - - - - -
26/01:30pm 32.8 SSW 9 13 1007.3 - 0.0 - - - - - - -
26/01:00pm 32.4 SSW 8 13 1007.6 - 0.0 - - - - - - -
26/12:30pm 32.3 SSW 8 13 1007.9 - 0.0 - - - - - - -
26/12:00pm 32.9 SSW 8 14 1008.1 - 0.0 - - - - - - -
26/11:30am 32.8 SSW 8 15 1008.3 - 0.0 - - - - - - -
26/11:00am 33.0 SSW 8 14 1008.8 - 0.0 - - - - - - -
26/10:30am 32.5 SSW 7 13 1008.9 - 0.0 - - - - - - -
26/10:00am 31.2 SSW 8 13 1008.9 - 0.0 - - - - - - -
26/09:30am 30.8 SSW 6 10 1008.8 - 0.0 - - - - - - -
26/09:00am 30.2 SSW 7 11 1008.7 - 0.0 - - - - - - -
26/08:30am 29.5 S 7 10 1008.8 - 0.0 - - - - - - -
26/08:00am 28.1 S 6 8 1008.7 - 0.0 - - - - - - -
26/07:30am 27.4 S 5 8 1008.5 - 0.0 - - - - - - -
26/07:00am 27.3 SSW 6 10 1008.2 - 0.0 - - - - - - -
26/06:30am 27.0 SSW 6 9 1008.1 - 0.0 - - - - - - -
26/06:00am 26.9 SSW 6 9 1007.7 - 0.0 - - - - - - -
26/05:30am 27.3 SW 7 10 1007.6 - 0.0 - - - - - - -
26/05:00am 27.2 SW 5 8 1007.6 - 0.0 - - - - - - -
26/04:30am 27.9 WSW 5 8 1007.7 - 0.0 - - - - - - -
26/04:00am 27.5 SW 5 8 1007.9 - 0.0 - - - - - - -
26/03:30am 28.1 SW 6 11 1007.9 - 0.0 - - - - - - -
26/03:00am 28.6 WSW 8 11 1008.0 - 0.0 - - - - - - -
26/02:30am 28.6 WSW 7 10 1008.4 - 0.0 - - - - - - -
26/02:00am 28.7 WSW 7 11 1008.3 - 0.0 - - - - - - -
26/01:30am 28.7 WSW 8 11 1008.6 - 0.0 - - - - - - -
26/01:00am 28.5 W 6 9 1009.3 - 0.0 - - - - - - -
26/12:30am 28.3 W 7 9 1009.7 - 0.0 - - - - - - -
26/12:00am 28.5 W 7 9 1009.8 - 0.0 - - - - - - -
 
Date/Time
CST
Temp
°C
Wind Pressure Rain since
9am
mm
Weather Cloud Vis
km
Sea
Height
m
Swell
Dir  Spd
kts
Gust
kts
hPa Trend Height
m
Period
s
Dir
25/11:30pm 28.5 W 7 8 1009.9 - 0.0 - - - - - - -
25/11:00pm 27.7 WNW 6 7 1010.0 - 0.0 - - - - - - -
25/10:30pm 27.6 WNW 5 7 1009.9 - 0.0 - - - - - - -
25/10:00pm 25.9 WNW 5 7 1009.7 - 0.0 - - - - - - -
25/09:30pm 26.1 NW 5 6 1009.6 - 0.0 - - - - - - -
25/09:00pm 26.2 CALM 0 0 1009.3 - 0.0 - - - - - - -
25/08:30pm 26.8 CALM 0 0 1009.3 - 0.0 - - - - - - -
25/08:00pm 27.6 W 1 3 1009.1 - 0.0 - - - - - - -
25/07:30pm 28.9 WSW 4 6 1008.6 - 0.0 - - - - - - -
25/07:00pm 30.1 WSW 4 6 1008.2 - 0.0 - - - - - - -
25/06:30pm 31.0 WSW 4 6 1007.7 - 0.0 - - - - - - -
25/06:00pm 31.7 WSW 5 7 1007.7 - 0.0 - - - - - - -
25/05:30pm 32.2 WSW 5 7 1007.7 - 0.0 - - - - - - -
25/05:00pm 32.5 WSW 5 8 1007.5 - 0.0 - - - - - - -
25/04:30pm 32.7 WSW 6 9 1007.6 - 0.0 - - - - - - -
25/04:00pm 32.4 WSW 5 8 1007.9 - 0.0 - - - - - - -
25/03:30pm 32.9 WSW 6 8 1008.2 - 0.0 - - - - - - -
25/03:00pm 31.9 W 5 8 1008.4 - 0.0 - - - - - - -
25/02:30pm 32.3 WSW 6 8 1008.7 - 0.0 - - - - - - -
25/02:00pm 32.3 WSW 6 7 1009.2 - 0.0 - - - - - - -
25/01:30pm 32.6 WSW 6 7 1009.7 - 0.0 - - - - - - -
25/01:00pm 32.7 WSW 6 9 1010.1 - 0.0 - - - - - - -
25/12:30pm 31.7 W 5 7 1010.5 - 0.0 - - - - - - -
25/12:00pm 31.1 WSW 5 7 1010.8 - 0.0 - - - - - - -
25/11:30am 31.5 WNW 5 6 1011.2 - 0.0 - - - - - - -
25/11:00am 31.3 WNW 4 5 1011.5 - 0.0 - - - - - - -
25/10:30am 29.9 NNW 1 3 1011.8 - 0.0 - - - - - - -

Other Formats:

Comma delimited format used in spreadsheet applications
http://www.bom.gov.au/fwo/IDD60701/IDD60701.94122.axf

JavaScript Object Notation format (JSON) in row-major order
http://www.bom.gov.au/fwo/IDD60701/IDD60701.94122.json